createdAt,value
2023-10-19T00:02:09.923Z,16.37
2023-10-19T00:04:39.184Z,21.87
2023-10-19T00:07:09.079Z,13.93
2023-10-19T00:09:39.864Z,18.77
2023-10-19T00:12:10.809Z,17.53
2023-10-19T00:14:37.920Z,16.03
2023-10-19T00:17:12.072Z,15.83
2023-10-19T00:19:42.577Z,18.47
2023-10-19T00:22:15.402Z,19.57
2023-10-19T00:24:42.926Z,17.00
2023-10-19T00:27:17.206Z,17.67
2023-10-19T00:29:50.235Z,14.83
2023-10-19T00:32:20.230Z,15.57
2023-10-19T00:34:52.999Z,14.30
2023-10-19T00:37:27.620Z,21.80
2023-10-19T00:39:57.575Z,21.43
2023-10-19T00:42:32.298Z,20.37
2023-10-19T00:45:05.923Z,21.90
2023-10-19T00:47:41.111Z,20.17
2023-10-19T00:50:15.970Z,18.53
2023-10-19T00:52:50.864Z,22.30
2023-10-19T00:55:22.466Z,17.10
2023-10-19T00:57:55.489Z,12.40
2023-10-19T01:00:31.650Z,16.27
2023-10-19T01:03:06.216Z,15.40
2023-10-19T01:05:37.862Z,15.93
2023-10-19T01:08:20.608Z,18.97
2023-10-19T01:10:53.431Z,23.60
2023-10-19T01:13:28.235Z,16.30
2023-10-19T01:15:57.443Z,15.27
2023-10-19T01:18:30.388Z,14.63
2023-10-19T01:20:58.604Z,13.50
2023-10-19T01:23:31.042Z,15.17
2023-10-19T01:26:06.880Z,17.70
2023-10-19T01:28:48.905Z,15.00
2023-10-19T01:31:23.997Z,16.63
2023-10-19T01:33:55.528Z,16.33
2023-10-19T01:36:29.588Z,21.70
2023-10-19T01:39:02.327Z,22.13
2023-10-19T01:41:32.236Z,22.47
2023-10-19T01:44:05.724Z,19.70
2023-10-19T01:46:35.826Z,23.70
2023-10-19T01:49:04.993Z,19.57
2023-10-19T01:51:39.296Z,16.27
2023-10-19T01:54:09.798Z,21.47
2023-10-19T01:56:39.794Z,16.33
2023-10-19T01:59:09.252Z,11.93
2023-10-19T02:01:39.308Z,13.83
2023-10-19T02:04:10.358Z,15.80
2023-10-19T02:06:39.697Z,15.83
2023-10-19T02:09:18.822Z,17.60
2023-10-19T02:11:48.663Z,15.20
2023-10-19T02:14:16.947Z,15.83
2023-10-19T02:16:45.625Z,18.07
2023-10-19T02:19:12.792Z,14.40
2023-10-19T02:21:41.531Z,15.80
2023-10-19T02:24:15.436Z,11.23
2023-10-19T02:26:44.844Z,19.67
2023-10-19T02:29:13.675Z,17.53
2023-10-19T02:31:42.979Z,14.33
2023-10-19T02:34:11.779Z,14.20
2023-10-19T02:36:41.476Z,11.57
2023-10-19T02:39:11.051Z,22.67
2023-10-19T02:41:40.181Z,11.27
2023-10-19T02:44:11.453Z,14.30
2023-10-19T02:46:41.172Z,14.60
2023-10-19T02:49:13.016Z,13.67
2023-10-19T02:51:41.019Z,14.37
2023-10-19T02:54:17.162Z,14.40
2023-10-19T02:56:48.611Z,9.10
2023-10-19T02:59:16.946Z,13.00
2023-10-19T03:01:46.908Z,9.93
2023-10-19T03:04:14.165Z,10.80
2023-10-19T03:06:42.649Z,12.83
2023-10-19T03:09:14.676Z,11.43
2023-10-19T03:11:43.225Z,11.47
2023-10-19T03:14:10.509Z,13.10
2023-10-19T03:16:42.366Z,9.57
2023-10-19T03:19:09.862Z,8.83
2023-10-19T03:21:44.099Z,8.03
2023-10-19T03:24:14.097Z,8.60
2023-10-19T03:26:49.714Z,13.67
2023-10-19T03:29:19.363Z,9.20
2023-10-19T03:31:48.605Z,7.97
2023-10-19T03:34:17.948Z,5.60
2023-10-19T03:36:46.756Z,8.50
2023-10-19T03:39:16.476Z,7.60
2023-10-19T03:41:45.463Z,9.43
2023-10-19T03:44:20.276Z,12.73
2023-10-19T03:46:59.190Z,9.50
2023-10-19T03:49:34.457Z,9.40
2023-10-19T03:52:21.205Z,10.93
2023-10-19T03:54:51.532Z,9.70
2023-10-19T03:57:26.173Z,9.77
2023-10-19T03:59:57.929Z,9.07
2023-10-19T04:02:28.568Z,10.13
2023-10-19T04:04:58.582Z,11.63
2023-10-19T04:07:27.911Z,9.53
2023-10-19T04:10:10.913Z,11.80
2023-10-19T04:12:43.384Z,9.77
2023-10-19T04:15:14.943Z,12.33
2023-10-19T04:17:43.740Z,13.20
2023-10-19T04:20:29.557Z,10.07
2023-10-19T04:22:59.083Z,16.03
2023-10-19T04:25:30.672Z,13.20
2023-10-19T04:27:59.160Z,10.00
2023-10-19T04:30:27.737Z,8.03
2023-10-19T04:32:58.845Z,8.53
2023-10-19T04:35:31.273Z,10.60
2023-10-19T04:38:00.900Z,10.50
2023-10-19T04:40:30.602Z,15.47
2023-10-19T04:42:59.228Z,11.20
2023-10-19T04:45:27.449Z,13.10
2023-10-19T04:47:56.847Z,11.87
2023-10-19T04:50:25.009Z,8.00
2023-10-19T04:52:53.232Z,11.77
2023-10-19T04:55:21.478Z,11.83
2023-10-19T04:57:51.216Z,8.27
2023-10-19T05:00:22.146Z,11.50
2023-10-19T05:02:53.238Z,11.70
2023-10-19T05:05:21.763Z,11.97
2023-10-19T05:07:50.025Z,12.13
2023-10-19T05:10:18.392Z,11.87
2023-10-19T05:12:46.507Z,7.40
2023-10-19T05:15:17.029Z,10.93
2023-10-19T05:17:45.157Z,13.27
2023-10-19T05:20:13.849Z,8.70
2023-10-19T05:22:42.014Z,13.50
2023-10-19T05:25:10.384Z,10.43
2023-10-19T05:27:40.414Z,13.13
2023-10-19T05:30:11.479Z,10.40
2023-10-19T05:32:41.324Z,14.60
2023-10-19T05:35:14.379Z,10.40
2023-10-19T05:37:42.758Z,9.07
2023-10-19T05:40:16.180Z,12.40
2023-10-19T05:42:44.517Z,12.90
2023-10-19T05:45:14.317Z,13.03
2023-10-19T05:47:44.849Z,11.03
2023-10-19T05:50:15.684Z,14.93
2023-10-19T05:52:44.476Z,16.53
2023-10-19T05:55:12.962Z,13.17
2023-10-19T05:57:42.373Z,16.57
2023-10-19T06:00:14.585Z,10.90
2023-10-19T06:02:46.848Z,11.83
2023-10-19T06:05:16.637Z,10.50
2023-10-19T06:07:45.191Z,15.10
2023-10-19T06:10:17.014Z,17.13
2023-10-19T06:12:45.676Z,7.83
2023-10-19T06:15:14.487Z,9.10
2023-10-19T06:17:46.112Z,9.67
2023-10-19T06:20:24.931Z,12.80
2023-10-19T06:22:54.798Z,9.10
2023-10-19T06:25:25.038Z,7.87
2023-10-19T06:27:54.624Z,11.70
2023-10-19T06:30:24.259Z,10.33
2023-10-19T06:32:55.370Z,14.93
2023-10-19T06:35:24.712Z,10.30
2023-10-19T06:37:52.884Z,11.70
2023-10-19T06:40:21.721Z,13.33
2023-10-19T06:42:50.369Z,26.17
2023-10-19T06:45:20.140Z,13.93
2023-10-19T06:47:50.828Z,11.40
2023-10-19T06:50:21.675Z,10.13
2023-10-19T06:52:50.197Z,9.60
2023-10-19T06:55:20.975Z,8.73
2023-10-19T06:57:51.449Z,13.30
2023-10-19T07:00:21.704Z,7.17
2023-10-19T07:02:51.900Z,7.47
2023-10-19T07:05:23.539Z,8.00
2023-10-19T07:07:53.205Z,8.10
2023-10-19T07:10:21.894Z,10.50
2023-10-19T07:12:52.910Z,5.37
2023-10-19T07:15:21.209Z,8.53
2023-10-19T07:17:49.359Z,9.00
2023-10-19T07:20:26.753Z,8.07
2023-10-19T07:22:57.723Z,11.80
2023-10-19T07:25:27.150Z,13.00
2023-10-19T07:27:55.893Z,10.50
2023-10-19T07:30:27.639Z,11.43
2023-10-19T07:32:59.752Z,12.70
2023-10-19T07:35:28.610Z,12.00
2023-10-19T07:37:58.884Z,8.97
2023-10-19T07:40:27.231Z,10.20
2023-10-19T07:42:56.231Z,18.80
2023-10-19T07:45:24.522Z,6.93
2023-10-19T07:47:52.747Z,6.93
2023-10-19T07:50:23.653Z,9.90
2023-10-19T07:52:53.673Z,6.90
2023-10-19T07:55:24.894Z,5.93
2023-10-19T07:57:53.493Z,7.80
2023-10-19T08:00:22.413Z,9.87
2023-10-19T08:02:50.627Z,13.10
2023-10-19T08:05:20.387Z,11.00
2023-10-19T08:07:49.515Z,11.23
2023-10-19T08:10:19.665Z,11.40
2023-10-19T08:12:51.090Z,9.13
2023-10-19T08:15:21.062Z,11.73
2023-10-19T08:17:51.757Z,7.40
2023-10-19T08:20:24.449Z,13.70
2023-10-19T08:22:54.428Z,9.33
2023-10-19T08:25:23.003Z,8.40
2023-10-19T08:27:53.064Z,11.63
2023-10-19T08:30:26.249Z,11.13
2023-10-19T08:32:58.085Z,12.23
2023-10-19T08:35:27.029Z,13.87
2023-10-19T08:37:56.185Z,8.63
2023-10-19T08:40:27.976Z,9.17
2023-10-19T08:42:57.721Z,7.37
2023-10-19T08:45:27.099Z,4.77
2023-10-19T08:47:58.743Z,4.97
2023-10-19T08:50:27.909Z,8.17
2023-10-19T08:52:57.711Z,4.80
2023-10-19T08:55:40.946Z,5.17
2023-10-19T08:58:17.239Z,7.33
2023-10-19T09:00:48.952Z,8.27
2023-10-19T09:03:19.056Z,6.60
2023-10-19T09:05:48.278Z,12.03
2023-10-19T09:08:18.551Z,5.00
2023-10-19T09:10:48.006Z,13.53
2023-10-19T09:13:20.381Z,5.70
2023-10-19T09:15:51.120Z,5.63
2023-10-19T09:18:21.348Z,4.60
2023-10-19T09:20:55.082Z,5.70
2023-10-19T09:23:23.838Z,3.10
2023-10-19T09:25:54.057Z,8.40
2023-10-19T09:28:25.350Z,3.63
2023-10-19T09:30:54.659Z,4.33
2023-10-19T09:33:25.377Z,4.40
2023-10-19T09:35:54.990Z,5.10
2023-10-19T09:38:23.734Z,3.20
2023-10-19T09:40:52.007Z,2.73
2023-10-19T09:43:29.486Z,2.57
2023-10-19T09:46:01.513Z,2.80
2023-10-19T09:48:30.000Z,4.70
2023-10-19T09:50:59.883Z,4.60
2023-10-19T09:53:29.497Z,3.47
2023-10-19T09:56:01.149Z,2.30
2023-10-19T09:58:35.910Z,3.10
2023-10-19T10:01:04.966Z,4.70
2023-10-19T10:03:46.623Z,2.93
2023-10-19T10:06:16.110Z,7.80
2023-10-19T10:08:46.042Z,7.43
2023-10-19T10:11:20.174Z,5.80
2023-10-19T10:13:53.250Z,3.07
2023-10-19T10:16:24.546Z,3.80
2023-10-19T10:18:56.683Z,2.90
2023-10-19T10:21:26.271Z,4.23
2023-10-19T10:23:56.158Z,4.60
2023-10-19T10:26:26.671Z,2.60
2023-10-19T10:29:14.712Z,4.30
2023-10-19T10:31:47.568Z,3.80
2023-10-19T10:34:45.808Z,3.60
2023-10-19T10:37:15.595Z,6.83
2023-10-19T10:39:46.177Z,6.97
2023-10-19T10:42:16.057Z,3.13
2023-10-19T10:44:47.078Z,3.80
2023-10-19T10:47:23.042Z,4.37
2023-10-19T10:49:54.059Z,2.90
2023-10-19T10:52:30.720Z,2.97
2023-10-19T10:54:59.969Z,3.50
2023-10-19T10:57:34.264Z,4.03
2023-10-19T11:00:09.571Z,9.40
2023-10-19T11:02:41.468Z,2.87
2023-10-19T11:05:13.326Z,2.77
2023-10-19T11:08:04.162Z,6.03
2023-10-19T11:10:33.192Z,4.90
2023-10-19T11:13:05.267Z,4.43
2023-10-19T11:15:35.182Z,11.30
2023-10-19T11:18:03.780Z,4.50
2023-10-19T11:20:32.459Z,3.50
2023-10-19T11:23:02.032Z,5.17
2023-10-19T11:25:31.685Z,6.47
2023-10-19T11:28:00.973Z,11.33
2023-10-19T11:30:30.867Z,4.07
2023-10-19T11:33:02.558Z,6.37
2023-10-19T11:35:32.689Z,4.53
2023-10-19T11:38:03.748Z,5.90
2023-10-19T11:40:32.118Z,6.10
2023-10-19T11:43:01.926Z,4.80
2023-10-19T11:45:31.049Z,4.30
2023-10-19T11:48:00.990Z,5.93
2023-10-19T11:50:29.535Z,4.83
2023-10-19T11:52:58.529Z,9.80
2023-10-19T11:55:26.898Z,5.27
2023-10-19T11:57:54.950Z,4.40
2023-10-19T12:00:26.037Z,6.20
2023-10-19T12:02:54.526Z,5.97
2023-10-19T12:05:25.156Z,3.53
2023-10-19T12:07:53.507Z,9.50
2023-10-19T12:10:26.905Z,7.53
2023-10-19T12:13:02.040Z,3.10
2023-10-19T12:15:32.148Z,4.07
2023-10-19T12:18:00.906Z,3.97
2023-10-19T12:20:32.194Z,9.27
2023-10-19T12:23:02.005Z,4.87
2023-10-19T12:25:50.199Z,4.33
2023-10-19T12:28:21.664Z,6.17
2023-10-19T12:30:49.920Z,6.30
2023-10-19T12:33:18.147Z,5.20
2023-10-19T12:35:50.790Z,8.10
2023-10-19T12:38:19.060Z,4.70
2023-10-19T12:40:48.515Z,10.00
2023-10-19T12:43:19.804Z,5.30
2023-10-19T12:45:54.808Z,3.40
2023-10-19T12:48:23.110Z,3.87
2023-10-19T12:50:52.581Z,5.40
2023-10-19T12:53:23.576Z,4.60
2023-10-19T12:55:51.750Z,7.80
2023-10-19T12:58:20.912Z,8.23
2023-10-19T13:00:49.941Z,5.70
2023-10-19T13:03:19.785Z,3.63
2023-10-19T13:05:48.326Z,4.30
2023-10-19T13:08:19.914Z,5.40
2023-10-19T13:10:53.283Z,6.90
2023-10-19T13:13:25.149Z,4.67
2023-10-19T13:15:54.948Z,4.00
2023-10-19T13:18:29.090Z,5.80
2023-10-19T13:20:58.633Z,5.03
2023-10-19T13:23:31.532Z,4.40
2023-10-19T13:26:12.762Z,3.50
2023-10-19T13:28:42.075Z,3.87
2023-10-19T13:31:11.086Z,4.27
2023-10-19T13:33:39.382Z,4.13
2023-10-19T13:36:07.893Z,6.20
2023-10-19T13:38:37.378Z,7.93
2023-10-19T13:41:08.751Z,4.40
2023-10-19T13:43:39.232Z,8.83
2023-10-19T13:46:08.081Z,8.07
2023-10-19T13:48:37.256Z,6.10
2023-10-19T13:51:14.181Z,5.97
2023-10-19T13:53:46.334Z,7.00
2023-10-19T13:56:16.001Z,7.00
2023-10-19T13:58:44.690Z,7.63
2023-10-19T14:01:17.375Z,8.43
2023-10-19T14:03:47.036Z,13.33
2023-10-19T14:06:16.217Z,8.83
2023-10-19T14:08:46.236Z,9.73
2023-10-19T14:11:14.358Z,7.77
2023-10-19T14:13:43.622Z,9.90
2023-10-19T14:16:12.808Z,8.83
2023-10-19T14:18:41.183Z,6.73
2023-10-19T14:21:17.269Z,11.20
2023-10-19T14:23:47.241Z,9.93
2023-10-19T14:26:16.005Z,5.13
2023-10-19T14:28:44.239Z,8.83
2023-10-19T14:31:13.559Z,7.67
2023-10-19T14:33:42.060Z,7.63
2023-10-19T14:36:11.889Z,8.40
2023-10-19T14:38:40.752Z,10.30
2023-10-19T14:41:11.223Z,9.63
2023-10-19T14:43:39.851Z,7.90
2023-10-19T14:46:08.547Z,10.70
2023-10-19T14:48:37.746Z,8.07
2023-10-19T14:51:06.792Z,8.17
2023-10-19T14:53:35.489Z,5.67
2023-10-19T14:56:03.965Z,7.60
2023-10-19T14:58:33.481Z,9.73
2023-10-19T15:01:01.765Z,10.53
2023-10-19T15:03:30.695Z,10.13
2023-10-19T15:06:00.732Z,6.40
2023-10-19T15:08:32.398Z,7.20
2023-10-19T15:11:01.091Z,7.00
2023-10-19T15:13:29.586Z,6.10
2023-10-19T15:15:59.076Z,6.50
2023-10-19T15:18:27.315Z,6.27
2023-10-19T15:20:55.416Z,7.40
2023-10-19T15:23:23.885Z,7.80
2023-10-19T15:25:52.542Z,8.33
2023-10-19T15:28:20.842Z,15.70
2023-10-19T15:30:49.495Z,19.37
2023-10-19T15:33:20.549Z,10.73
2023-10-19T15:35:50.184Z,8.37
2023-10-19T15:38:18.344Z,11.00
2023-10-19T15:40:46.484Z,13.10
2023-10-19T15:43:14.639Z,18.43
2023-10-19T15:45:45.151Z,17.07
2023-10-19T15:48:13.912Z,18.57
2023-10-19T15:50:43.445Z,19.00
2023-10-19T15:53:12.026Z,18.70
2023-10-19T15:55:40.226Z,14.60
2023-10-19T15:58:09.945Z,11.73
2023-10-19T16:00:39.887Z,13.00
2023-10-19T16:03:08.192Z,15.10
2023-10-19T16:05:37.414Z,13.10
2023-10-19T16:08:07.885Z,14.17
2023-10-19T16:10:37.541Z,15.20
2023-10-19T16:13:05.987Z,16.73
2023-10-19T16:15:34.239Z,20.77
2023-10-19T16:18:02.485Z,27.80
2023-10-19T16:20:30.802Z,20.40
2023-10-19T16:23:00.193Z,28.47
2023-10-19T16:25:30.058Z,22.10
2023-10-19T16:27:58.300Z,12.57
2023-10-19T16:30:28.007Z,12.27
2023-10-19T16:32:56.156Z,10.40
2023-10-19T16:35:24.303Z,7.67
2023-10-19T16:37:52.435Z,11.17
2023-10-19T16:40:21.403Z,10.13
2023-10-19T16:42:50.830Z,5.93
2023-10-19T16:45:19.004Z,6.60
2023-10-19T16:47:47.765Z,9.30
2023-10-19T16:50:20.012Z,11.50
2023-10-19T16:52:49.114Z,11.50
2023-10-19T16:55:17.457Z,7.60
2023-10-19T16:57:45.544Z,9.30
2023-10-19T17:00:16.134Z,7.67
2023-10-19T17:02:44.787Z,7.97
2023-10-19T17:05:13.702Z,17.80
2023-10-19T17:07:42.446Z,20.03
2023-10-19T17:10:11.766Z,28.10
2023-10-19T17:12:40.049Z,24.37
2023-10-19T17:15:13.558Z,18.77
2023-10-19T17:17:44.756Z,16.37
2023-10-19T17:20:13.796Z,16.90
2023-10-19T17:22:42.230Z,20.60
2023-10-19T17:25:10.890Z,23.73
2023-10-19T17:27:39.189Z,18.37
2023-10-19T17:30:08.528Z,18.37
2023-10-19T17:32:36.893Z,14.60
2023-10-19T17:35:07.305Z,11.43
2023-10-19T17:37:36.156Z,16.77
2023-10-19T17:40:05.925Z,14.60
2023-10-19T17:42:34.118Z,12.87
2023-10-19T17:45:02.340Z,13.80
2023-10-19T17:47:30.600Z,10.27
2023-10-19T17:49:59.035Z,11.40
2023-10-19T17:52:28.970Z,11.00
2023-10-19T17:54:57.211Z,10.20
2023-10-19T17:57:26.445Z,9.83
2023-10-19T17:59:54.779Z,14.00
2023-10-19T18:02:23.150Z,20.43
2023-10-19T18:04:54.385Z,21.03
2023-10-19T18:07:23.357Z,20.63
2023-10-19T18:09:54.043Z,26.47
2023-10-19T18:12:22.911Z,24.50
2023-10-19T18:14:51.099Z,21.63
2023-10-19T18:17:19.816Z,27.47
2023-10-19T18:19:48.336Z,18.30
2023-10-19T18:22:16.711Z,16.50
2023-10-19T18:24:45.077Z,13.40
2023-10-19T18:27:14.558Z,27.00
2023-10-19T18:29:45.115Z,18.20
2023-10-19T18:32:13.407Z,16.17
2023-10-19T18:34:41.737Z,22.27
2023-10-19T18:37:09.908Z,27.10
2023-10-19T18:39:38.169Z,29.67
2023-10-19T18:42:10.368Z,33.27
2023-10-19T18:44:40.255Z,32.03
2023-10-19T18:47:08.515Z,32.93
2023-10-19T18:49:36.860Z,26.27
2023-10-19T18:52:08.532Z,26.93
2023-10-19T18:54:38.644Z,32.53
2023-10-19T18:57:07.824Z,49.10
2023-10-19T18:59:36.021Z,43.20
2023-10-19T19:02:07.253Z,75.17
2023-10-19T19:04:36.016Z,69.43
2023-10-19T19:07:04.494Z,52.47
2023-10-19T19:09:32.992Z,33.13
2023-10-19T19:12:01.340Z,31.17
2023-10-19T19:14:29.905Z,29.27
2023-10-19T19:17:00.420Z,32.30
2023-10-19T19:19:30.222Z,36.23
2023-10-19T19:21:58.393Z,31.43
2023-10-19T19:24:25.662Z,27.33
2023-10-19T19:26:53.813Z,27.43
2023-10-19T19:29:23.818Z,33.87
2023-10-19T19:31:52.373Z,24.70
2023-10-19T19:34:20.625Z,23.97
2023-10-19T19:36:50.123Z,20.70
2023-10-19T19:39:19.463Z,21.13
2023-10-19T19:41:48.263Z,24.83
2023-10-19T19:44:16.513Z,19.40
2023-10-19T19:46:44.798Z,19.37
2023-10-19T19:49:15.603Z,22.80
2023-10-19T19:51:44.540Z,20.73
2023-10-19T19:54:14.043Z,17.20
2023-10-19T19:56:42.472Z,24.83
2023-10-19T19:59:10.642Z,22.07
2023-10-19T20:01:38.900Z,18.23
2023-10-19T20:04:07.798Z,16.87
2023-10-19T20:06:38.087Z,21.70
2023-10-19T20:09:11.526Z,17.47
2023-10-19T20:11:41.823Z,22.43
2023-10-19T20:14:10.128Z,21.43
2023-10-19T20:16:38.334Z,13.17
2023-10-19T20:19:07.429Z,17.13
2023-10-19T20:21:35.717Z,19.13
2023-10-19T20:24:07.430Z,17.90
2023-10-19T20:26:35.827Z,19.20
2023-10-19T20:29:07.321Z,18.57
2023-10-19T20:31:35.667Z,23.70
2023-10-19T20:34:04.032Z,20.07
2023-10-19T20:36:32.156Z,22.70
2023-10-19T20:39:02.229Z,23.33
2023-10-19T20:41:30.979Z,20.53
2023-10-19T20:44:00.327Z,21.67
2023-10-19T20:46:31.303Z,19.87
2023-10-19T20:49:00.874Z,21.27
2023-10-19T20:51:29.055Z,22.60
2023-10-19T20:53:57.422Z,23.77
2023-10-19T20:56:27.509Z,14.83
2023-10-19T20:58:55.832Z,18.53
2023-10-19T21:01:23.930Z,16.87
2023-10-19T21:03:53.822Z,23.00
2023-10-19T21:06:22.050Z,16.80
2023-10-19T21:08:50.135Z,14.57
2023-10-19T21:11:19.712Z,27.03
2023-10-19T21:13:48.428Z,16.10
2023-10-19T21:16:17.121Z,19.87
2023-10-19T21:18:45.488Z,27.13
2023-10-19T21:21:15.657Z,29.20
2023-10-19T21:23:43.834Z,26.57
2023-10-19T21:26:12.672Z,24.20
2023-10-19T21:28:41.811Z,20.60
2023-10-19T21:31:11.351Z,24.27
2023-10-19T21:33:39.978Z,17.93
2023-10-19T21:36:08.360Z,15.80
2023-10-19T21:38:39.248Z,18.10
2023-10-19T21:41:07.434Z,17.43
2023-10-19T21:43:35.688Z,16.90
2023-10-19T21:46:04.062Z,19.10
2023-10-19T21:48:32.290Z,22.37
2023-10-19T21:51:01.011Z,18.10
2023-10-19T21:53:29.402Z,21.30
2023-10-19T21:55:59.071Z,19.60
2023-10-19T21:58:26.342Z,16.30
2023-10-19T22:01:00.826Z,16.27
2023-10-19T22:03:29.318Z,18.37
2023-10-19T22:05:57.695Z,14.03
2023-10-19T22:08:26.003Z,13.70
2023-10-19T22:10:55.991Z,14.40
2023-10-19T22:13:25.617Z,15.50
2023-10-19T22:15:53.768Z,13.77
2023-10-19T22:18:23.556Z,14.70
2023-10-19T22:20:56.122Z,11.70
2023-10-19T22:23:24.713Z,13.53
2023-10-19T22:25:53.216Z,14.23
2023-10-19T22:28:21.809Z,14.90
2023-10-19T22:30:51.250Z,22.27
2023-10-19T22:33:19.401Z,14.20
2023-10-19T22:35:50.357Z,15.50
2023-10-19T22:38:18.529Z,12.17
2023-10-19T22:40:46.942Z,10.87
2023-10-19T22:43:15.040Z,11.40
2023-10-19T22:45:44.225Z,14.30
2023-10-19T22:48:13.901Z,10.80
2023-10-19T22:50:42.111Z,10.10
2023-10-19T22:53:10.911Z,14.70
2023-10-19T22:55:39.103Z,11.47
2023-10-19T22:58:07.242Z,12.60
2023-10-19T23:00:35.410Z,12.90
2023-10-19T23:03:03.671Z,11.43
2023-10-19T23:05:33.726Z,12.33
2023-10-19T23:08:02.108Z,11.93
2023-10-19T23:10:32.924Z,15.23
2023-10-19T23:13:02.195Z,11.87
2023-10-19T23:15:40.671Z,11.37
2023-10-19T23:18:11.745Z,11.53
2023-10-19T23:20:42.992Z,11.80
2023-10-19T23:23:13.969Z,13.00
2023-10-19T23:25:51.060Z,16.80
2023-10-19T23:28:19.233Z,12.10
2023-10-19T23:30:48.349Z,10.90
2023-10-19T23:33:16.484Z,14.00
2023-10-19T23:35:46.030Z,13.73
2023-10-19T23:38:15.938Z,13.40
2023-10-19T23:40:44.435Z,17.13
2023-10-19T23:43:12.604Z,12.47
2023-10-19T23:45:40.769Z,10.43
2023-10-19T23:48:11.991Z,12.60
2023-10-19T23:50:40.391Z,12.50
2023-10-19T23:53:10.409Z,14.10
2023-10-19T23:55:41.676Z,10.43
2023-10-19T23:58:10.061Z,16.33
